createdAt,value
2023-02-08T00:01:31.437Z,-16.99
2023-02-08T00:04:00.180Z,-17.05
2023-02-08T00:06:28.990Z,-17.06
2023-02-08T00:08:57.810Z,-17.26
2023-02-08T00:11:26.424Z,-17.00
2023-02-08T00:13:55.544Z,-17.26
2023-02-08T00:16:24.279Z,-17.24
2023-02-08T00:18:53.101Z,-17.41
2023-02-08T00:21:21.742Z,-17.15
2023-02-08T00:23:50.456Z,-17.38
2023-02-08T00:26:19.396Z,-17.41
2023-02-08T00:28:48.564Z,-17.36
2023-02-08T00:31:19.361Z,-17.35
2023-02-08T00:33:48.003Z,-17.43
2023-02-08T00:36:16.798Z,-17.36
2023-02-08T00:38:47.749Z,-17.44
2023-02-08T00:41:16.526Z,-17.66
2023-02-08T00:43:45.167Z,-17.49
2023-02-08T00:46:16.497Z,-17.67
2023-02-08T00:48:45.154Z,-17.83
2023-02-08T00:51:15.176Z,-17.61
2023-02-08T00:53:46.057Z,-17.70
2023-02-08T00:56:18.261Z,-17.82
2023-02-08T00:58:46.897Z,-17.78
2023-02-08T01:01:15.842Z,-17.86
2023-02-08T01:03:45.369Z,-17.87
2023-02-08T01:06:19.208Z,-17.86
2023-02-08T01:08:47.882Z,-17.69
2023-02-08T01:11:22.459Z,-17.92
2023-02-08T01:13:51.338Z,-17.99
2023-02-08T01:16:26.277Z,-17.68
2023-02-08T01:18:56.880Z,-18.38
2023-02-08T01:21:30.503Z,-17.79
2023-02-08T01:23:59.596Z,-18.30
2023-02-08T01:26:32.384Z,-18.41
2023-02-08T01:29:01.841Z,-18.20
2023-02-08T01:31:34.033Z,-17.98
2023-02-08T01:34:04.424Z,-17.98
2023-02-08T01:36:34.378Z,-18.01
2023-02-08T01:39:04.059Z,-18.05
2023-02-08T01:41:36.237Z,-18.03
2023-02-08T01:44:20.154Z,-17.94
2023-02-08T01:46:52.023Z,-18.04
2023-02-08T01:49:33.351Z,-17.98
2023-02-08T01:52:10.575Z,-18.15
2023-02-08T01:55:05.951Z,-18.18
2023-02-08T01:57:34.914Z,-18.46
2023-02-08T02:00:25.160Z,-18.15
2023-02-08T02:02:56.645Z,-18.27
2023-02-08T02:05:30.825Z,-18.39
2023-02-08T02:08:01.335Z,-18.40
2023-02-08T02:10:34.990Z,-18.90
2023-02-08T02:13:08.871Z,-18.98
2023-02-08T02:15:37.555Z,-18.40
2023-02-08T02:18:09.297Z,-18.26
2023-02-08T02:21:04.433Z,-18.29
2023-02-08T02:23:51.860Z,-18.31
2023-02-08T02:26:23.106Z,-18.31
2023-02-08T02:29:00.958Z,-18.33
2023-02-08T02:31:54.095Z,-18.33
2023-02-08T02:34:43.625Z,-18.33
2023-02-08T02:37:48.436Z,-18.33
2023-02-08T02:40:50.275Z,-18.33
2023-02-08T02:43:43.413Z,-18.33
2023-02-08T02:46:15.617Z,-18.33
2023-02-08T02:49:02.896Z,-18.36
2023-02-08T02:52:00.850Z,-18.62
2023-02-08T02:54:54.041Z,-18.44
2023-02-08T02:57:30.797Z,-18.68
2023-02-08T03:00:01.278Z,-18.67
2023-02-08T03:02:30.500Z,-18.81
2023-02-08T03:04:59.313Z,-18.81
2023-02-08T03:07:50.144Z,-18.82
2023-02-08T03:10:44.661Z,-18.88
2023-02-08T03:13:50.183Z,-18.73
2023-02-08T03:16:25.540Z,-19.43
2023-02-08T03:19:05.702Z,-18.75
2023-02-08T03:21:48.545Z,-19.04
2023-02-08T03:24:37.999Z,-18.88
2023-02-08T03:27:27.791Z,-18.77
2023-02-08T03:30:19.798Z,-18.77
2023-02-08T03:32:56.195Z,-18.92
2023-02-08T03:35:40.757Z,-18.79
2023-02-08T03:38:19.285Z,-19.45
2023-02-08T03:40:52.789Z,-18.85
2023-02-08T03:43:45.812Z,-18.71
2023-02-08T03:46:21.306Z,-18.92
2023-02-08T03:48:57.336Z,-18.89
2023-02-08T03:51:29.307Z,-18.90
2023-02-08T03:54:02.049Z,-18.83
2023-02-08T03:56:42.523Z,-18.82
2023-02-08T03:59:18.832Z,-18.73
2023-02-08T04:01:58.637Z,-18.80
2023-02-08T04:04:32.000Z,-18.60
2023-02-08T04:07:00.789Z,-18.91
2023-02-08T04:09:29.553Z,-18.48
2023-02-08T04:11:58.365Z,-18.46
2023-02-08T04:14:26.959Z,-18.22
2023-02-08T04:16:55.892Z,-18.29
2023-02-08T04:19:24.521Z,-18.24
2023-02-08T04:21:53.507Z,-18.42
2023-02-08T04:24:24.714Z,-18.24
2023-02-08T04:26:53.406Z,-18.18
2023-02-08T04:29:22.031Z,-18.12
2023-02-08T04:31:50.842Z,-18.20
2023-02-08T04:34:19.358Z,-18.17
2023-02-08T04:36:48.164Z,-18.07
2023-02-08T04:39:16.654Z,-18.81
2023-02-08T04:41:45.316Z,-17.99
2023-02-08T04:44:15.537Z,-17.98
2023-02-08T04:46:44.140Z,-17.93
2023-02-08T04:49:12.813Z,-17.89
2023-02-08T04:51:41.872Z,-18.05
2023-02-08T04:54:10.555Z,-17.98
2023-02-08T04:56:39.476Z,-17.93
2023-02-08T04:59:08.597Z,-17.68
2023-02-08T05:01:37.264Z,-17.50
2023-02-08T05:04:06.259Z,-17.49
2023-02-08T05:06:34.687Z,-17.50
2023-02-08T05:09:03.510Z,-17.65
2023-02-08T05:11:32.244Z,-17.44
2023-02-08T05:14:00.764Z,-17.28
2023-02-08T05:16:29.716Z,-17.32
2023-02-08T05:18:59.242Z,-17.43
2023-02-08T05:21:28.089Z,-17.28
2023-02-08T05:23:56.642Z,-17.08
2023-02-08T05:26:25.376Z,-17.64
2023-02-08T05:28:54.938Z,-17.12
2023-02-08T05:31:26.317Z,-16.89
2023-02-08T05:33:57.275Z,-16.53
2023-02-08T05:36:27.148Z,-16.89
2023-02-08T05:38:57.458Z,-17.04
2023-02-08T05:41:26.536Z,-17.50
2023-02-08T05:43:56.221Z,-16.77
2023-02-08T05:46:24.710Z,-16.68
2023-02-08T05:48:53.772Z,-16.72
2023-02-08T05:51:22.535Z,-16.29
2023-02-08T05:53:51.306Z,-16.90
2023-02-08T05:56:19.971Z,-16.33
2023-02-08T05:58:49.071Z,-16.71
2023-02-08T06:01:17.873Z,-16.66
2023-02-08T06:03:46.584Z,-16.29
2023-02-08T06:06:15.474Z,-15.97
2023-02-08T06:08:44.255Z,-15.76
2023-02-08T06:11:13.841Z,-15.78
2023-02-08T06:13:42.575Z,-15.82
2023-02-08T06:16:11.151Z,-16.00
2023-02-08T06:18:39.891Z,-15.99
2023-02-08T06:21:08.754Z,-16.56
2023-02-08T06:23:37.454Z,-15.96
2023-02-08T06:26:06.452Z,-16.02
2023-02-08T06:28:34.954Z,-16.13
2023-02-08T06:31:03.793Z,-16.15
2023-02-08T06:33:32.539Z,-15.81
2023-02-08T06:36:01.263Z,-15.75
2023-02-08T06:38:29.911Z,-15.89
2023-02-08T06:40:58.573Z,-15.62
2023-02-08T06:43:27.421Z,-15.54
2023-02-08T06:45:56.309Z,-15.74
2023-02-08T06:48:25.056Z,-15.02
2023-02-08T06:50:55.894Z,-15.47
2023-02-08T06:53:24.573Z,-14.93
2023-02-08T06:55:53.615Z,-14.88
2023-02-08T06:58:22.237Z,-15.22
2023-02-08T07:00:51.109Z,-15.04
2023-02-08T07:03:23.281Z,-14.61
2023-02-08T07:06:04.041Z,-14.66
2023-02-08T07:08:35.186Z,-14.49
2023-02-08T07:11:16.497Z,-14.20
2023-02-08T07:13:49.135Z,-13.99
2023-02-08T07:16:19.678Z,-13.79
2023-02-08T07:18:48.717Z,-13.79
2023-02-08T07:21:17.795Z,-13.67
2023-02-08T07:23:46.573Z,-13.55
2023-02-08T07:26:15.778Z,-13.22
2023-02-08T07:28:44.876Z,-13.49
2023-02-08T07:31:15.966Z,-12.95
2023-02-08T07:33:45.937Z,-13.00
2023-02-08T07:36:14.554Z,-12.91
2023-02-08T07:38:43.978Z,-12.67
2023-02-08T07:41:14.783Z,-12.84
2023-02-08T07:43:44.144Z,-12.80
2023-02-08T07:46:18.869Z,-13.16
2023-02-08T07:48:47.437Z,-13.02
2023-02-08T07:51:16.060Z,-13.11
2023-02-08T07:53:44.844Z,-13.28
2023-02-08T07:56:13.584Z,-13.59
2023-02-08T07:58:42.285Z,-13.31
2023-02-08T08:01:21.980Z,-13.41
2023-02-08T08:03:52.764Z,-13.25
2023-02-08T08:06:23.742Z,-13.46
2023-02-08T08:08:52.363Z,-13.59
2023-02-08T08:11:22.551Z,-13.50
2023-02-08T08:13:52.302Z,-13.59
2023-02-08T08:16:21.490Z,-13.52
2023-02-08T08:18:51.420Z,-13.71
2023-02-08T08:21:20.034Z,-14.21
2023-02-08T08:23:48.829Z,-13.75
2023-02-08T08:26:20.445Z,-13.72
2023-02-08T08:28:50.125Z,-13.88
2023-02-08T08:31:23.496Z,-13.77
2023-02-08T08:33:54.745Z,-14.02
2023-02-08T08:36:23.465Z,-14.53
2023-02-08T08:38:52.925Z,-13.85
2023-02-08T08:41:23.840Z,-14.05
2023-02-08T08:43:52.465Z,-13.77
2023-02-08T08:46:22.510Z,-13.90
2023-02-08T08:48:52.443Z,-14.01
2023-02-08T08:51:21.500Z,-13.87
2023-02-08T08:53:50.208Z,-13.82
2023-02-08T08:56:18.801Z,-13.89
2023-02-08T08:58:47.359Z,-13.93
2023-02-08T09:01:16.347Z,-14.12
2023-02-08T09:03:45.006Z,-14.01
2023-02-08T09:06:13.788Z,-13.94
2023-02-08T09:08:42.957Z,-13.99
2023-02-08T09:11:14.080Z,-13.97
2023-02-08T09:13:43.655Z,-13.95
2023-02-08T09:16:16.253Z,-14.22
2023-02-08T09:18:46.377Z,-14.10
2023-02-08T09:21:27.960Z,-14.23
2023-02-08T09:23:56.836Z,-14.24
2023-02-08T09:26:28.714Z,-14.35
2023-02-08T09:28:57.735Z,-14.32
2023-02-08T09:31:29.501Z,-14.31
2023-02-08T09:34:01.131Z,-14.58
2023-02-08T09:36:33.620Z,-14.49
2023-02-08T09:39:16.204Z,-14.34
2023-02-08T09:42:03.298Z,-14.34
2023-02-08T09:45:05.240Z,-14.46
2023-02-08T09:47:38.825Z,-14.61
2023-02-08T09:50:28.082Z,-14.52
2023-02-08T09:53:35.983Z,-14.63
2023-02-08T09:56:13.365Z,-15.22
2023-02-08T09:58:45.899Z,-14.56
2023-02-08T10:01:22.214Z,-14.76
2023-02-08T10:03:56.717Z,-14.91
2023-02-08T10:06:25.198Z,-14.89
2023-02-08T10:08:55.239Z,-15.14
2023-02-08T10:11:42.283Z,-14.99
2023-02-08T10:14:29.081Z,-15.00
2023-02-08T10:17:22.756Z,-15.11
2023-02-08T10:20:17.714Z,-15.34
2023-02-08T10:23:20.454Z,-15.25
2023-02-08T10:26:15.756Z,-15.10
2023-02-08T10:28:59.118Z,-15.33
2023-02-08T10:31:46.337Z,-15.22
2023-02-08T10:34:38.115Z,-15.33
2023-02-08T10:37:28.790Z,-15.69
2023-02-08T10:40:04.309Z,-15.69
2023-02-08T10:42:38.855Z,-15.60
2023-02-08T10:45:24.836Z,-15.60
2023-02-08T10:48:02.533Z,-15.59
2023-02-08T10:50:48.157Z,-15.83
2023-02-08T10:53:29.474Z,-15.85
2023-02-08T10:56:01.020Z,-15.83
2023-02-08T10:58:29.671Z,-15.87
2023-02-08T11:01:07.896Z,-15.97
2023-02-08T11:03:40.134Z,-16.16
2023-02-08T11:06:27.932Z,-15.92
2023-02-08T11:09:00.731Z,-16.47
2023-02-08T11:11:35.812Z,-16.01
2023-02-08T11:14:19.630Z,-16.21
2023-02-08T11:16:53.216Z,-16.12
2023-02-08T11:19:46.940Z,-16.21
2023-02-08T11:22:31.890Z,-16.98
2023-02-08T11:25:07.114Z,-17.08
2023-02-08T11:27:39.732Z,-16.54
2023-02-08T11:30:14.565Z,-16.59
2023-02-08T11:32:46.112Z,-16.84
2023-02-08T11:35:30.871Z,-17.38
2023-02-08T11:38:20.339Z,-16.95
2023-02-08T11:40:52.197Z,-17.55
2023-02-08T11:43:33.648Z,-16.95
2023-02-08T11:46:06.449Z,-17.05
2023-02-08T11:49:01.335Z,-17.12
2023-02-08T11:51:32.429Z,-17.18
2023-02-08T11:54:01.869Z,-17.22
2023-02-08T11:56:35.592Z,-17.42
2023-02-08T11:59:22.406Z,-17.57
2023-02-08T12:01:53.608Z,-17.67
2023-02-08T12:04:23.008Z,-17.85
2023-02-08T12:07:22.638Z,-17.71
2023-02-08T12:10:16.646Z,-17.82
2023-02-08T12:13:05.850Z,-18.63
2023-02-08T12:16:06.884Z,-18.12
2023-02-08T12:18:48.994Z,-18.19
2023-02-08T12:21:28.309Z,-18.35
2023-02-08T12:24:04.217Z,-18.56
2023-02-08T12:26:35.612Z,-18.55
2023-02-08T12:29:45.683Z,-18.70
2023-02-08T12:32:35.628Z,-18.72
2023-02-08T12:35:26.773Z,-18.74
2023-02-08T12:38:24.709Z,-18.91
2023-02-08T12:41:21.264Z,-19.30
2023-02-08T12:44:16.264Z,-19.34
2023-02-08T12:46:54.547Z,-19.30
2023-02-08T12:49:40.923Z,-19.46
2023-02-08T12:52:20.801Z,-19.53
2023-02-08T12:55:02.222Z,-19.86
2023-02-08T12:57:34.263Z,-19.55
2023-02-08T13:00:20.408Z,-19.74
2023-02-08T13:03:27.624Z,-19.52
2023-02-08T13:06:02.502Z,-19.58
2023-02-08T13:08:42.327Z,-19.68
2023-02-08T13:11:35.069Z,-20.00
2023-02-08T13:14:17.201Z,-19.89
2023-02-08T13:16:51.322Z,-20.65
2023-02-08T13:19:25.797Z,-19.90
2023-02-08T13:21:55.683Z,-21.02
2023-02-08T13:24:32.648Z,-20.13
2023-02-08T13:27:01.847Z,-19.99
2023-02-08T13:29:31.176Z,-20.76
2023-02-08T13:32:23.064Z,-19.99
2023-02-08T13:34:59.581Z,-20.11
2023-02-08T13:37:35.131Z,-20.07
2023-02-08T13:40:11.824Z,-20.06
2023-02-08T13:42:44.373Z,-20.01
2023-02-08T13:45:27.733Z,-20.22
2023-02-08T13:48:12.153Z,-20.18
2023-02-08T13:50:51.426Z,-20.22
2023-02-08T13:53:40.109Z,-20.14
2023-02-08T13:56:13.760Z,-20.22
2023-02-08T13:58:51.368Z,-20.29
2023-02-08T14:01:28.387Z,-20.65
2023-02-08T14:04:09.068Z,-20.42
2023-02-08T14:06:59.596Z,-20.91
2023-02-08T14:09:54.385Z,-20.71
2023-02-08T14:12:46.442Z,-20.55
2023-02-08T14:15:18.334Z,-20.60
2023-02-08T14:17:50.900Z,-20.90
2023-02-08T14:20:27.854Z,-20.88
2023-02-08T14:23:09.151Z,-20.92
2023-02-08T14:25:50.399Z,-20.99
2023-02-08T14:28:26.757Z,-21.22
2023-02-08T14:30:58.890Z,-20.98
2023-02-08T14:33:40.916Z,-20.99
2023-02-08T14:36:22.440Z,-20.92
2023-02-08T14:38:54.830Z,-20.92
2023-02-08T14:41:52.790Z,-21.48
2023-02-08T14:44:39.906Z,-20.95
2023-02-08T14:47:37.709Z,-21.04
2023-02-08T14:50:19.713Z,-21.73
2023-02-08T14:52:59.403Z,-21.14
2023-02-08T14:55:44.498Z,-21.19
2023-02-08T14:58:23.047Z,-21.35
2023-02-08T15:00:55.644Z,-21.44
2023-02-08T15:03:25.775Z,-21.57
2023-02-08T15:06:20.588Z,-21.46
2023-02-08T15:08:56.639Z,-21.76
2023-02-08T15:11:29.051Z,-21.81
2023-02-08T15:14:01.590Z,-21.83
2023-02-08T15:16:45.173Z,-22.32
2023-02-08T15:19:43.849Z,-21.58
2023-02-08T15:22:26.567Z,-21.95
2023-02-08T15:24:59.856Z,-21.76
2023-02-08T15:27:33.652Z,-21.63
2023-02-08T15:30:02.507Z,-21.97
2023-02-08T15:32:31.789Z,-21.32
2023-02-08T15:35:05.485Z,-22.05
2023-02-08T15:37:34.883Z,-21.23
2023-02-08T15:40:05.553Z,-21.43
2023-02-08T15:42:35.630Z,-21.21
2023-02-08T15:45:05.310Z,-21.44
2023-02-08T15:47:38.571Z,-21.61
2023-02-08T15:50:16.075Z,-21.41
2023-02-08T15:52:45.469Z,-21.35
2023-02-08T15:55:17.826Z,-21.32
2023-02-08T15:58:00.329Z,-21.18
2023-02-08T16:00:33.844Z,-21.72
2023-02-08T16:03:10.240Z,-21.15
2023-02-08T16:05:42.187Z,-20.96
2023-02-08T16:08:23.502Z,-21.04
2023-02-08T16:11:15.863Z,-21.02
2023-02-08T16:13:50.270Z,-20.76
2023-02-08T16:16:38.164Z,-20.86
2023-02-08T16:19:20.879Z,-20.72
2023-02-08T16:21:50.196Z,-20.72
2023-02-08T16:24:19.117Z,-20.71
2023-02-08T16:27:07.254Z,-20.72
2023-02-08T16:29:42.605Z,-20.95
2023-02-08T16:32:34.412Z,-20.81
2023-02-08T16:35:28.186Z,-21.07
2023-02-08T16:38:02.986Z,-21.15
2023-02-08T16:40:52.337Z,-21.13
2023-02-08T16:43:28.623Z,-21.23
2023-02-08T16:46:12.306Z,-21.31
2023-02-08T16:48:55.440Z,-21.66
2023-02-08T16:51:26.750Z,-21.41
2023-02-08T16:54:07.713Z,-21.42
2023-02-08T16:56:37.678Z,-21.77
2023-02-08T16:59:07.266Z,-21.49
2023-02-08T17:01:36.536Z,-21.53
2023-02-08T17:04:05.690Z,-21.40
2023-02-08T17:06:37.305Z,-21.29
2023-02-08T17:09:08.867Z,-21.31
2023-02-08T17:11:38.375Z,-21.30
2023-02-08T17:14:09.413Z,-21.35
2023-02-08T17:16:40.748Z,-21.11
2023-02-08T17:19:17.999Z,-21.27
2023-02-08T17:21:48.989Z,-21.31
2023-02-08T17:24:18.146Z,-21.23
2023-02-08T17:26:47.067Z,-20.96
2023-02-08T17:29:16.148Z,-20.84
2023-02-08T17:31:44.883Z,-20.98
2023-02-08T17:34:13.705Z,-20.97
2023-02-08T17:36:42.813Z,-20.92
2023-02-08T17:39:12.007Z,-20.85
2023-02-08T17:41:41.223Z,-20.69
2023-02-08T17:44:11.739Z,-20.63
2023-02-08T17:46:40.629Z,-20.61
2023-02-08T17:49:09.280Z,-20.67
2023-02-08T17:51:37.989Z,-20.61
2023-02-08T17:54:07.058Z,-20.75
2023-02-08T17:56:37.122Z,-20.93
2023-02-08T17:59:06.382Z,-20.45
2023-02-08T18:01:37.732Z,-20.45
2023-02-08T18:04:06.919Z,-20.65
2023-02-08T18:06:35.620Z,-20.87
2023-02-08T18:09:04.802Z,-20.86
2023-02-08T18:11:33.524Z,-20.95
2023-02-08T18:14:02.271Z,-21.08
2023-02-08T18:16:31.535Z,-21.05
2023-02-08T18:19:02.521Z,-20.86
2023-02-08T18:21:34.059Z,-21.01
2023-02-08T18:24:07.227Z,-21.02
2023-02-08T18:26:35.929Z,-21.26
2023-02-08T18:29:05.694Z,-21.06
2023-02-08T18:31:34.513Z,-21.14
2023-02-08T18:34:04.422Z,-21.05
2023-02-08T18:36:36.058Z,-21.03
2023-02-08T18:39:05.102Z,-21.06
2023-02-08T18:41:33.737Z,-20.94
2023-02-08T18:44:03.874Z,-20.99
2023-02-08T18:46:32.649Z,-21.23
2023-02-08T18:49:01.200Z,-21.29
2023-02-08T18:51:30.593Z,-21.16
2023-02-08T18:53:59.514Z,-21.26
2023-02-08T18:56:29.563Z,-21.57
2023-02-08T18:59:01.296Z,-21.19
2023-02-08T19:01:30.216Z,-21.31
2023-02-08T19:03:59.694Z,-21.16
2023-02-08T19:06:29.364Z,-21.27
2023-02-08T19:09:02.218Z,-21.45
2023-02-08T19:11:34.981Z,-21.56
2023-02-08T19:14:07.374Z,-21.87
2023-02-08T19:16:37.716Z,-23.69
2023-02-08T19:19:07.688Z,-22.33
2023-02-08T19:21:37.136Z,-22.16
2023-02-08T19:24:06.570Z,-22.13
2023-02-08T19:26:40.221Z,-22.06
2023-02-08T19:29:14.160Z,-21.93
2023-02-08T19:31:43.180Z,-21.95
2023-02-08T19:34:13.285Z,-22.13
2023-02-08T19:36:45.432Z,-22.89
2023-02-08T19:39:16.273Z,-22.82
2023-02-08T19:41:46.225Z,-22.12
2023-02-08T19:44:17.516Z,-22.32
2023-02-08T19:46:54.699Z,-22.22
2023-02-08T19:49:26.376Z,-22.53
2023-02-08T19:51:55.330Z,-22.32
2023-02-08T19:54:24.453Z,-22.47
2023-02-08T19:56:55.402Z,-22.35
2023-02-08T19:59:28.722Z,-22.33
2023-02-08T20:01:57.644Z,-22.35
2023-02-08T20:04:29.484Z,-22.38
2023-02-08T20:06:58.185Z,-23.09
2023-02-08T20:09:27.106Z,-22.51
2023-02-08T20:11:57.971Z,-22.49
2023-02-08T20:14:33.462Z,-22.52
2023-02-08T20:17:03.366Z,-22.34
2023-02-08T20:19:32.098Z,-22.55
2023-02-08T20:22:00.878Z,-22.41
2023-02-08T20:24:29.682Z,-22.66
2023-02-08T20:26:58.344Z,-22.72
2023-02-08T20:29:28.565Z,-22.58
2023-02-08T20:31:58.414Z,-22.52
2023-02-08T20:34:27.517Z,-22.67
2023-02-08T20:37:11.367Z,-22.66
2023-02-08T20:39:40.119Z,-22.47
2023-02-08T20:42:09.196Z,-22.48
2023-02-08T20:44:38.102Z,-22.48
2023-02-08T20:47:07.437Z,-22.32
2023-02-08T20:49:37.057Z,-22.36
2023-02-08T20:52:06.959Z,-22.46
2023-02-08T20:54:36.247Z,-22.31
2023-02-08T20:57:05.392Z,-22.27
2023-02-08T20:59:34.321Z,-22.21
2023-02-08T21:02:03.094Z,-22.25
2023-02-08T21:04:32.921Z,-22.14
2023-02-08T21:07:01.623Z,-22.87
2023-02-08T21:09:30.382Z,-22.88
2023-02-08T21:11:59.021Z,-22.08
2023-02-08T21:14:27.984Z,-22.41
2023-02-08T21:16:59.636Z,-22.29
2023-02-08T21:19:30.067Z,-22.22
2023-02-08T21:22:01.834Z,-22.21
2023-02-08T21:24:31.560Z,-22.37
2023-02-08T21:27:00.608Z,-22.35
2023-02-08T21:29:30.203Z,-22.45
2023-02-08T21:31:59.494Z,-23.01
2023-02-08T21:34:28.261Z,-22.61
2023-02-08T21:36:56.956Z,-22.55
2023-02-08T21:39:25.725Z,-22.57
2023-02-08T21:41:56.065Z,-22.34
2023-02-08T21:44:24.919Z,-22.33
2023-02-08T21:46:53.623Z,-22.52
2023-02-08T21:49:40.738Z,-22.77
2023-02-08T21:52:30.458Z,-22.44
2023-02-08T21:55:01.527Z,-22.59
2023-02-08T21:57:36.317Z,-22.61
2023-02-08T22:00:08.860Z,-22.68
2023-02-08T22:02:44.183Z,-22.57
2023-02-08T22:05:13.178Z,-22.84
2023-02-08T22:07:46.020Z,-22.74
2023-02-08T22:10:17.524Z,-23.55
2023-02-08T22:12:47.895Z,-22.79
2023-02-08T22:15:19.458Z,-22.96
2023-02-08T22:17:48.828Z,-22.67
2023-02-08T22:20:17.684Z,-22.66
2023-02-08T22:22:46.899Z,-22.78
2023-02-08T22:25:15.576Z,-23.44
2023-02-08T22:27:45.177Z,-22.94
2023-02-08T22:30:16.720Z,-22.78
2023-02-08T22:32:47.419Z,-22.75
2023-02-08T22:35:17.960Z,-23.48
2023-02-08T22:37:47.059Z,-23.02
2023-02-08T22:40:16.193Z,-22.95
2023-02-08T22:42:44.806Z,-22.90
2023-02-08T22:45:13.715Z,-22.89
2023-02-08T22:47:42.409Z,-23.17
2023-02-08T22:50:11.302Z,-22.83
2023-02-08T22:52:39.943Z,-23.03
2023-02-08T22:55:09.226Z,-22.85
2023-02-08T22:57:38.185Z,-22.87
2023-02-08T23:00:08.525Z,-22.94
2023-02-08T23:02:37.416Z,-22.81
2023-02-08T23:05:06.449Z,-22.90
2023-02-08T23:07:35.323Z,-22.80
2023-02-08T23:10:04.538Z,-22.90
2023-02-08T23:12:33.466Z,-22.87
2023-02-08T23:15:02.267Z,-23.01
2023-02-08T23:17:31.080Z,-22.82
2023-02-08T23:19:59.970Z,-22.87
2023-02-08T23:22:28.705Z,-23.25
2023-02-08T23:24:57.442Z,-22.85
2023-02-08T23:27:26.222Z,-23.07
2023-02-08T23:29:54.917Z,-22.81
2023-02-08T23:32:23.736Z,-23.08
2023-02-08T23:34:52.519Z,-22.98
2023-02-08T23:37:21.060Z,-22.99
2023-02-08T23:39:52.615Z,-22.92
2023-02-08T23:42:27.360Z,-23.12
2023-02-08T23:44:57.906Z,-23.24
2023-02-08T23:47:28.649Z,-22.98
2023-02-08T23:49:57.297Z,-23.12
2023-02-08T23:52:26.043Z,-23.16
2023-02-08T23:54:54.851Z,-23.24
2023-02-08T23:57:23.881Z,-23.67
2023-02-08T23:59:52.593Z,-23.02
